createdAt,value
2023-02-11T00:01:41.665Z,-2.60
2023-02-11T00:04:12.103Z,-2.85
2023-02-11T00:06:41.018Z,-2.65
2023-02-11T00:09:09.945Z,-2.86
2023-02-11T00:11:38.901Z,-2.79
2023-02-11T00:14:09.049Z,-1.01
2023-02-11T00:16:37.945Z,0.66
2023-02-11T00:19:07.274Z,1.14
2023-02-11T00:21:37.508Z,-0.37
2023-02-11T00:24:06.800Z,-1.09
2023-02-11T00:26:36.704Z,-1.46
2023-02-11T00:29:06.278Z,-1.95
2023-02-11T00:31:35.564Z,-2.16
2023-02-11T00:34:07.429Z,-2.77
2023-02-11T00:36:37.790Z,-2.99
2023-02-11T00:39:06.864Z,-2.79
2023-02-11T00:41:37.627Z,-3.00
2023-02-11T00:44:06.656Z,-2.89
2023-02-11T00:46:35.646Z,-2.88
2023-02-11T00:49:04.533Z,-2.93
2023-02-11T00:51:33.426Z,-2.82
2023-02-11T00:54:03.694Z,-3.22
2023-02-11T00:56:33.110Z,-3.91
2023-02-11T00:59:02.006Z,-3.96
2023-02-11T01:01:30.920Z,-4.11
2023-02-11T01:03:59.801Z,-3.68
2023-02-11T01:06:28.683Z,-4.20
2023-02-11T01:08:57.553Z,-3.85
2023-02-11T01:11:27.819Z,-3.66
2023-02-11T01:13:56.663Z,-3.63
2023-02-11T01:16:25.589Z,-3.66
2023-02-11T01:18:55.468Z,-3.60
2023-02-11T01:21:24.287Z,-3.56
2023-02-11T01:23:53.671Z,-3.82
2023-02-11T01:26:22.503Z,-3.85
2023-02-11T01:28:53.736Z,-3.63
2023-02-11T01:31:22.637Z,-3.69
2023-02-11T01:33:51.576Z,-3.65
2023-02-11T01:36:20.476Z,-3.69
2023-02-11T01:38:50.025Z,-3.75
2023-02-11T01:41:22.664Z,-3.83
2023-02-11T01:43:52.988Z,-3.90
2023-02-11T01:46:40.508Z,-3.85
2023-02-11T01:49:14.360Z,-3.84
2023-02-11T01:51:46.683Z,-4.23
2023-02-11T01:54:38.901Z,-4.46
2023-02-11T01:57:25.119Z,-4.27
2023-02-11T02:00:02.621Z,-4.62
2023-02-11T02:02:49.238Z,-4.79
2023-02-11T02:05:30.229Z,-4.56
2023-02-11T02:08:07.832Z,-4.67
2023-02-11T02:10:37.921Z,-4.47
2023-02-11T02:13:06.749Z,-4.46
2023-02-11T02:15:38.504Z,-4.24
2023-02-11T02:18:30.769Z,-4.24
2023-02-11T02:21:33.469Z,-4.30
2023-02-11T02:24:23.117Z,-4.38
2023-02-11T02:27:17.248Z,-4.67
2023-02-11T02:30:17.316Z,-4.66
2023-02-11T02:33:07.961Z,-4.71
2023-02-11T02:35:48.461Z,-4.70
2023-02-11T02:38:24.557Z,-4.78
2023-02-11T02:40:57.792Z,-4.89
2023-02-11T02:43:28.279Z,-4.61
2023-02-11T02:45:57.565Z,-4.51
2023-02-11T02:48:29.591Z,-4.40
2023-02-11T02:51:09.790Z,-4.54
2023-02-11T02:53:53.173Z,-4.33
2023-02-11T02:56:29.745Z,-4.71
2023-02-11T02:59:16.302Z,-5.12
2023-02-11T03:01:56.191Z,-4.94
2023-02-11T03:04:36.106Z,-5.32
2023-02-11T03:07:12.830Z,-5.72
2023-02-11T03:09:46.127Z,-5.32
2023-02-11T03:12:16.998Z,-5.08
2023-02-11T03:14:47.245Z,-4.96
2023-02-11T03:17:17.933Z,-4.95
2023-02-11T03:19:51.258Z,-5.00
2023-02-11T03:22:23.464Z,-4.97
2023-02-11T03:24:52.789Z,-5.01
2023-02-11T03:27:27.092Z,-4.92
2023-02-11T03:30:00.529Z,-4.71
2023-02-11T03:32:35.021Z,-4.63
2023-02-11T03:35:07.308Z,-4.61
2023-02-11T03:37:40.941Z,-5.09
2023-02-11T03:40:12.560Z,-5.49
2023-02-11T03:42:44.980Z,-5.40
2023-02-11T03:45:19.915Z,-5.30
2023-02-11T03:47:53.400Z,-5.14
2023-02-11T03:50:25.562Z,-5.13
2023-02-11T03:52:57.252Z,-5.01
2023-02-11T03:55:27.811Z,-5.33
2023-02-11T03:57:56.811Z,-5.11
2023-02-11T04:00:32.290Z,-5.14
2023-02-11T04:03:02.117Z,-4.93
2023-02-11T04:05:32.740Z,-5.59
2023-02-11T04:08:02.063Z,-5.05
2023-02-11T04:10:31.226Z,-4.96
2023-02-11T04:13:00.137Z,-4.91
2023-02-11T04:15:29.650Z,-4.93
2023-02-11T04:17:58.502Z,-4.76
2023-02-11T04:20:27.338Z,-5.06
2023-02-11T04:22:57.533Z,-5.44
2023-02-11T04:25:27.386Z,-5.02
2023-02-11T04:27:56.300Z,-5.37
2023-02-11T04:30:26.307Z,-4.87
2023-02-11T04:32:55.379Z,-5.62
2023-02-11T04:35:24.189Z,-5.32
2023-02-11T04:37:53.034Z,-5.41
2023-02-11T04:40:23.244Z,-5.36
2023-02-11T04:42:52.083Z,-5.51
2023-02-11T04:45:20.864Z,-5.35
2023-02-11T04:47:49.659Z,-5.41
2023-02-11T04:50:18.764Z,-5.21
2023-02-11T04:52:47.564Z,-5.22
2023-02-11T04:55:16.418Z,-5.21
2023-02-11T04:57:46.689Z,-5.48
2023-02-11T05:00:16.772Z,-5.36
2023-02-11T05:02:45.635Z,-5.62
2023-02-11T05:05:14.523Z,-5.29
2023-02-11T05:07:43.281Z,-5.36
2023-02-11T05:10:12.156Z,-5.20
2023-02-11T05:12:41.007Z,-5.35
2023-02-11T05:15:11.404Z,-5.59
2023-02-11T05:17:40.235Z,-6.04
2023-02-11T05:20:10.231Z,-5.72
2023-02-11T05:22:39.108Z,-5.53
2023-02-11T05:25:08.562Z,-5.41
2023-02-11T05:27:37.449Z,-5.27
2023-02-11T05:30:07.969Z,-5.19
2023-02-11T05:32:38.208Z,-5.16
2023-02-11T05:35:08.100Z,-5.28
2023-02-11T05:37:37.142Z,-5.47
2023-02-11T05:40:07.172Z,-5.40
2023-02-11T05:42:36.038Z,-5.87
2023-02-11T05:45:05.358Z,-5.63
2023-02-11T05:47:34.224Z,-5.46
2023-02-11T05:50:04.605Z,-5.17
2023-02-11T05:52:33.435Z,-5.09
2023-02-11T05:55:03.222Z,-4.76
2023-02-11T05:57:32.103Z,-4.72
2023-02-11T06:00:00.942Z,-4.44
2023-02-11T06:02:29.822Z,-4.48
2023-02-11T06:04:58.781Z,-4.46
2023-02-11T06:07:29.090Z,-4.80
2023-02-11T06:09:57.983Z,-4.54
2023-02-11T06:12:27.229Z,-4.28
2023-02-11T06:14:56.078Z,-4.00
2023-02-11T06:17:25.475Z,-3.96
2023-02-11T06:19:54.280Z,-3.74
2023-02-11T06:22:23.120Z,-3.94
2023-02-11T06:25:01.314Z,-4.61
2023-02-11T06:27:32.385Z,-4.38
2023-02-11T06:30:01.312Z,-3.50
2023-02-11T06:32:43.454Z,-3.28
2023-02-11T06:35:14.499Z,-2.63
2023-02-11T06:37:44.023Z,-2.64
2023-02-11T06:40:14.490Z,-2.71
2023-02-11T06:42:43.418Z,-1.88
2023-02-11T06:45:13.391Z,-1.61
2023-02-11T06:47:43.001Z,-1.98
2023-02-11T06:50:15.046Z,-1.68
2023-02-11T06:52:43.895Z,-1.39
2023-02-11T06:55:14.340Z,-1.25
2023-02-11T06:57:43.193Z,-0.83
2023-02-11T07:00:13.339Z,-0.96
2023-02-11T07:02:42.446Z,-0.83
2023-02-11T07:05:12.182Z,-0.32
2023-02-11T07:07:41.039Z,-0.77
2023-02-11T07:10:10.615Z,-0.70
2023-02-11T07:12:41.380Z,-0.08
2023-02-11T07:15:10.734Z,-0.13
2023-02-11T07:17:39.627Z,0.86
2023-02-11T07:20:09.200Z,1.17
2023-02-11T07:22:38.091Z,0.99
2023-02-11T07:25:07.447Z,1.24
2023-02-11T07:27:36.248Z,1.57
2023-02-11T07:30:07.591Z,2.45
2023-02-11T07:32:36.458Z,2.96
2023-02-11T07:35:05.903Z,3.34
2023-02-11T07:37:35.471Z,3.39
2023-02-11T07:40:05.260Z,3.54
2023-02-11T07:42:35.458Z,2.78
2023-02-11T07:45:04.400Z,3.30
2023-02-11T07:47:35.554Z,3.42
2023-02-11T07:50:04.435Z,3.52
2023-02-11T07:52:33.280Z,3.74
2023-02-11T07:55:04.876Z,3.74
2023-02-11T07:57:33.861Z,3.11
2023-02-11T08:00:03.196Z,1.04
2023-02-11T08:02:41.188Z,1.17
2023-02-11T08:05:10.145Z,1.01
2023-02-11T08:07:38.954Z,0.93
2023-02-11T08:10:08.173Z,1.33
2023-02-11T08:12:37.078Z,2.86
2023-02-11T08:15:06.205Z,2.84
2023-02-11T08:17:36.709Z,2.65
2023-02-11T08:20:07.888Z,2.78
2023-02-11T08:22:36.692Z,4.43
2023-02-11T08:25:06.052Z,2.67
2023-02-11T08:27:34.915Z,1.63
2023-02-11T08:30:04.506Z,2.26
2023-02-11T08:32:36.106Z,1.72
2023-02-11T08:35:08.088Z,2.01
2023-02-11T08:37:36.928Z,2.35
2023-02-11T08:40:06.634Z,2.65
2023-02-11T08:42:35.455Z,2.62
2023-02-11T08:45:05.236Z,1.42
2023-02-11T08:47:34.032Z,3.74
2023-02-11T08:50:03.321Z,3.64
2023-02-11T08:52:33.593Z,3.68
2023-02-11T08:55:02.402Z,4.64
2023-02-11T08:57:31.425Z,4.71
2023-02-11T09:00:00.327Z,4.04
2023-02-11T09:02:30.039Z,4.02
2023-02-11T09:04:58.955Z,5.34
2023-02-11T09:07:29.172Z,5.66
2023-02-11T09:09:59.376Z,5.60
2023-02-11T09:12:28.282Z,5.79
2023-02-11T09:14:57.129Z,6.49
2023-02-11T09:17:25.965Z,6.28
2023-02-11T09:19:54.817Z,6.28
2023-02-11T09:22:23.672Z,6.24
2023-02-11T09:24:52.533Z,5.35
2023-02-11T09:27:22.743Z,5.21
2023-02-11T09:29:51.806Z,5.42
2023-02-11T09:32:20.682Z,4.67
2023-02-11T09:34:49.580Z,4.26
2023-02-11T09:37:18.467Z,3.78
2023-02-11T09:39:47.303Z,5.45
2023-02-11T09:42:47.536Z,4.82
2023-02-11T09:45:21.109Z,4.27
2023-02-11T09:47:54.388Z,3.65
2023-02-11T09:50:29.070Z,3.89
2023-02-11T09:53:01.834Z,3.89
2023-02-11T09:55:37.660Z,4.97
2023-02-11T09:58:13.397Z,6.62
2023-02-11T10:00:46.217Z,6.17
2023-02-11T10:03:36.951Z,7.56
2023-02-11T10:06:20.782Z,6.78
2023-02-11T10:09:02.826Z,7.54
2023-02-11T10:11:41.812Z,7.85
2023-02-11T10:14:29.380Z,8.24
2023-02-11T10:17:13.392Z,9.55
2023-02-11T10:19:59.168Z,9.92
2023-02-11T10:22:33.123Z,9.57
2023-02-11T10:25:07.356Z,8.83
2023-02-11T10:27:37.427Z,8.92
2023-02-11T10:30:19.252Z,8.15
2023-02-11T10:32:53.294Z,8.76
2023-02-11T10:35:24.256Z,8.61
2023-02-11T10:37:53.090Z,8.92
2023-02-11T10:40:24.770Z,9.60
2023-02-11T10:42:56.640Z,7.54
2023-02-11T10:45:33.192Z,8.12
2023-02-11T10:48:02.409Z,7.88
2023-02-11T10:50:33.515Z,7.43
2023-02-11T10:53:14.346Z,7.07
2023-02-11T10:55:51.596Z,7.85
2023-02-11T10:58:26.892Z,9.18
2023-02-11T11:00:58.409Z,9.72
2023-02-11T11:03:29.867Z,9.75
2023-02-11T11:06:01.409Z,9.52
2023-02-11T11:08:40.710Z,7.53
2023-02-11T11:11:11.302Z,8.56
2023-02-11T11:13:41.855Z,9.52
2023-02-11T11:16:21.810Z,8.75
2023-02-11T11:18:52.472Z,8.93
2023-02-11T11:21:24.519Z,8.36
2023-02-11T11:23:58.539Z,10.33
2023-02-11T11:26:29.984Z,11.61
2023-02-11T11:29:02.940Z,11.21
2023-02-11T11:31:35.947Z,12.05
2023-02-11T11:34:16.666Z,10.18
2023-02-11T11:36:46.162Z,10.25
2023-02-11T11:39:25.423Z,9.50
2023-02-11T11:41:57.421Z,9.57
2023-02-11T11:44:29.934Z,9.91
2023-02-11T11:47:23.128Z,9.91
2023-02-11T11:50:03.292Z,10.36
2023-02-11T11:52:41.047Z,9.31
2023-02-11T11:55:17.713Z,8.12
2023-02-11T11:57:46.866Z,9.47
2023-02-11T12:00:18.463Z,9.19
2023-02-11T12:03:19.778Z,10.23
2023-02-11T12:06:00.799Z,9.33
2023-02-11T12:08:42.429Z,9.43
2023-02-11T12:11:21.026Z,9.79
2023-02-11T12:14:05.010Z,9.87
2023-02-11T12:16:43.567Z,9.93
2023-02-11T12:19:38.681Z,8.98
2023-02-11T12:22:13.014Z,10.43
2023-02-11T12:25:11.704Z,9.93
2023-02-11T12:27:52.659Z,9.42
2023-02-11T12:30:33.790Z,9.72
2023-02-11T12:33:13.007Z,10.05
2023-02-11T12:35:55.161Z,10.33
2023-02-11T12:38:41.164Z,10.62
2023-02-11T12:41:50.391Z,11.19
2023-02-11T12:44:26.992Z,10.67
2023-02-11T12:47:04.361Z,10.47
2023-02-11T12:49:47.748Z,11.47
2023-02-11T12:52:32.161Z,11.86
2023-02-11T12:55:06.255Z,9.36
2023-02-11T12:57:37.886Z,8.07
2023-02-11T13:00:15.798Z,9.85
2023-02-11T13:02:51.142Z,9.75
2023-02-11T13:05:26.306Z,10.10
2023-02-11T13:07:58.715Z,9.84
2023-02-11T13:10:33.447Z,9.45
2023-02-11T13:13:20.483Z,8.57
2023-02-11T13:15:54.887Z,8.79
2023-02-11T13:18:48.318Z,8.99
2023-02-11T13:21:42.592Z,8.41
2023-02-11T13:24:23.652Z,8.70
2023-02-11T13:27:02.030Z,9.20
2023-02-11T13:29:37.578Z,9.55
2023-02-11T13:32:11.947Z,8.79
2023-02-11T13:35:00.190Z,9.18
2023-02-11T13:37:36.636Z,9.43
2023-02-11T13:40:21.638Z,9.44
2023-02-11T13:42:53.281Z,9.51
2023-02-11T13:45:31.341Z,8.87
2023-02-11T13:48:03.278Z,8.79
2023-02-11T13:50:37.684Z,8.95
2023-02-11T13:53:08.834Z,9.04
2023-02-11T13:55:49.005Z,8.32
2023-02-11T13:58:20.249Z,8.25
2023-02-11T14:00:51.659Z,8.43
2023-02-11T14:03:52.444Z,8.81
2023-02-11T14:06:42.184Z,8.45
2023-02-11T14:09:57.374Z,9.02
2023-02-11T14:12:38.351Z,9.48
2023-02-11T14:15:40.209Z,9.19
2023-02-11T14:18:44.628Z,9.91
2023-02-11T14:21:15.387Z,9.45
2023-02-11T14:23:44.853Z,10.12
2023-02-11T14:26:32.372Z,10.01
2023-02-11T14:29:14.127Z,9.70
2023-02-11T14:31:46.578Z,8.60
2023-02-11T14:34:47.419Z,9.22
2023-02-11T14:37:29.916Z,8.55
2023-02-11T14:40:06.946Z,8.02
2023-02-11T14:42:39.400Z,8.91
2023-02-11T14:45:12.959Z,9.03
2023-02-11T14:47:46.484Z,8.07
2023-02-11T14:50:19.813Z,8.10
2023-02-11T14:52:49.482Z,8.38
2023-02-11T14:55:30.583Z,8.97
2023-02-11T14:58:13.835Z,8.77
2023-02-11T15:00:56.327Z,7.41
2023-02-11T15:03:31.430Z,7.60
2023-02-11T15:06:01.971Z,7.02
2023-02-11T15:08:32.043Z,7.12
2023-02-11T15:11:04.199Z,6.91
2023-02-11T15:13:34.303Z,6.63
2023-02-11T15:16:11.256Z,6.44
2023-02-11T15:18:48.229Z,6.15
2023-02-11T15:21:22.847Z,6.59
2023-02-11T15:24:00.521Z,6.46
2023-02-11T15:26:30.420Z,6.50
2023-02-11T15:28:59.831Z,6.55
2023-02-11T15:31:32.546Z,6.54
2023-02-11T15:34:09.397Z,6.08
2023-02-11T15:36:39.450Z,6.68
2023-02-11T15:39:19.027Z,6.89
2023-02-11T15:41:47.920Z,7.20
2023-02-11T15:44:30.774Z,7.11
2023-02-11T15:47:01.992Z,7.35
2023-02-11T15:49:33.424Z,7.31
2023-02-11T15:52:02.420Z,7.09
2023-02-11T15:54:32.798Z,7.13
2023-02-11T15:57:05.712Z,6.87
2023-02-11T15:59:39.268Z,6.79
2023-02-11T16:02:17.303Z,7.76
2023-02-11T16:04:52.275Z,8.38
2023-02-11T16:07:46.033Z,7.95
2023-02-11T16:10:23.792Z,7.10
2023-02-11T16:12:54.784Z,6.52
2023-02-11T16:15:32.239Z,6.34
2023-02-11T16:18:03.925Z,6.31
2023-02-11T16:20:33.690Z,6.07
2023-02-11T16:23:04.784Z,6.17
2023-02-11T16:25:36.544Z,6.14
2023-02-11T16:28:06.389Z,5.56
2023-02-11T16:30:38.224Z,5.91
2023-02-11T16:33:10.668Z,5.94
2023-02-11T16:35:40.472Z,5.98
2023-02-11T16:38:09.329Z,5.90
2023-02-11T16:40:38.212Z,5.74
2023-02-11T16:43:07.053Z,5.43
2023-02-11T16:45:39.033Z,4.87
2023-02-11T16:48:13.835Z,4.76
2023-02-11T16:50:46.805Z,5.01
2023-02-11T16:53:19.932Z,5.23
2023-02-11T16:55:49.131Z,5.31
2023-02-11T16:58:18.264Z,5.40
2023-02-11T17:00:50.007Z,5.00
2023-02-11T17:03:24.568Z,4.81
2023-02-11T17:05:55.839Z,4.92
2023-02-11T17:08:25.343Z,5.10
2023-02-11T17:10:54.552Z,5.10
2023-02-11T17:13:26.036Z,4.92
2023-02-11T17:15:55.447Z,4.46
2023-02-11T17:18:25.998Z,4.71
2023-02-11T17:20:54.874Z,4.54
2023-02-11T17:23:27.192Z,4.52
2023-02-11T17:25:57.448Z,4.41
2023-02-11T17:28:26.818Z,4.43
2023-02-11T17:30:58.206Z,4.67
2023-02-11T17:33:28.825Z,4.74
2023-02-11T17:35:57.699Z,4.45
2023-02-11T17:38:26.620Z,4.26
2023-02-11T17:40:59.788Z,4.41
2023-02-11T17:43:28.940Z,4.13
2023-02-11T17:45:58.302Z,4.39
2023-02-11T17:48:28.701Z,4.19
2023-02-11T17:50:57.728Z,3.76
2023-02-11T17:53:26.704Z,3.63
2023-02-11T17:55:56.438Z,3.81
2023-02-11T17:58:25.388Z,3.93
2023-02-11T18:00:54.435Z,4.25
2023-02-11T18:03:23.295Z,3.95
2023-02-11T18:05:53.802Z,4.19
2023-02-11T18:08:22.797Z,4.26
2023-02-11T18:10:51.681Z,3.95
2023-02-11T18:13:20.680Z,3.80
2023-02-11T18:15:49.904Z,3.63
2023-02-11T18:18:19.437Z,3.59
2023-02-11T18:20:58.713Z,3.69
2023-02-11T18:23:28.730Z,3.68
2023-02-11T18:25:57.837Z,3.64
2023-02-11T18:28:26.845Z,3.39
2023-02-11T18:30:59.594Z,4.09
2023-02-11T18:33:29.567Z,2.77
2023-02-11T18:35:59.855Z,2.70
2023-02-11T18:38:29.546Z,3.13
2023-02-11T18:40:59.244Z,3.18
2023-02-11T18:43:31.601Z,2.59
2023-02-11T18:46:02.129Z,2.91
2023-02-11T18:48:31.014Z,2.79
2023-02-11T18:51:02.086Z,2.36
2023-02-11T18:53:31.053Z,2.60
2023-02-11T18:56:02.390Z,2.63
2023-02-11T18:58:31.248Z,2.56
2023-02-11T19:01:00.186Z,2.77
2023-02-11T19:03:29.641Z,3.01
2023-02-11T19:05:58.520Z,2.71
2023-02-11T19:08:28.781Z,2.87
2023-02-11T19:10:57.670Z,2.88
2023-02-11T19:13:27.522Z,2.63
2023-02-11T19:15:56.650Z,2.72
2023-02-11T19:18:25.496Z,2.67
2023-02-11T19:20:54.461Z,2.79
2023-02-11T19:23:23.344Z,2.84
2023-02-11T19:25:53.703Z,3.34
2023-02-11T19:28:22.733Z,3.19
2023-02-11T19:30:51.852Z,3.36
2023-02-11T19:33:20.732Z,2.83
2023-02-11T19:35:49.969Z,2.23
2023-02-11T19:38:19.239Z,2.21
2023-02-11T19:40:56.090Z,2.46
2023-02-11T19:43:26.877Z,2.46
2023-02-11T19:45:56.749Z,2.26
2023-02-11T19:48:26.238Z,3.90
2023-02-11T19:50:55.116Z,4.91
2023-02-11T19:53:24.346Z,4.90
2023-02-11T19:55:53.468Z,4.20
2023-02-11T19:58:22.520Z,3.65
2023-02-11T20:00:52.681Z,2.62
2023-02-11T20:03:21.536Z,1.68
2023-02-11T20:05:51.797Z,1.75
2023-02-11T20:08:20.801Z,1.56
2023-02-11T20:10:49.657Z,1.49
2023-02-11T20:13:18.583Z,1.33
2023-02-11T20:15:47.622Z,1.65
2023-02-11T20:18:17.847Z,1.32
2023-02-11T20:20:46.648Z,1.11
2023-02-11T20:23:15.451Z,1.16
2023-02-11T20:25:44.298Z,1.30
2023-02-11T20:28:13.173Z,1.43
2023-02-11T20:30:42.317Z,1.37
2023-02-11T20:33:11.396Z,1.33
2023-02-11T20:35:41.756Z,1.39
2023-02-11T20:38:10.594Z,1.24
2023-02-11T20:40:39.401Z,1.09
2023-02-11T20:43:08.235Z,0.76
2023-02-11T20:45:37.044Z,0.76
2023-02-11T20:48:05.987Z,0.96
2023-02-11T20:50:35.156Z,1.02
2023-02-11T20:53:05.739Z,0.99
2023-02-11T20:55:38.254Z,1.05
2023-02-11T20:58:08.258Z,1.06
2023-02-11T21:00:37.855Z,1.25
2023-02-11T21:03:06.736Z,1.20
2023-02-11T21:05:36.104Z,0.94
2023-02-11T21:08:06.483Z,0.56
2023-02-11T21:10:35.282Z,0.52
2023-02-11T21:13:04.269Z,0.00
2023-02-11T21:15:33.175Z,0.35
2023-02-11T21:18:02.115Z,0.41
2023-02-11T21:20:30.907Z,0.95
2023-02-11T21:22:59.778Z,1.00
2023-02-11T21:25:30.835Z,1.22
2023-02-11T21:27:59.689Z,0.98
2023-02-11T21:30:28.548Z,0.75
2023-02-11T21:32:59.078Z,0.75
2023-02-11T21:35:28.024Z,0.74
2023-02-11T21:37:56.879Z,0.73
2023-02-11T21:40:27.469Z,0.80
2023-02-11T21:42:58.325Z,0.84
2023-02-11T21:45:27.233Z,1.13
2023-02-11T21:47:56.155Z,1.20
2023-02-11T21:50:25.280Z,1.11
2023-02-11T21:52:54.149Z,0.93
2023-02-11T21:55:23.364Z,0.76
2023-02-11T21:57:52.202Z,0.82
2023-02-11T22:00:22.952Z,0.79
2023-02-11T22:02:51.761Z,0.05
2023-02-11T22:05:20.924Z,0.30
2023-02-11T22:07:50.006Z,0.53
2023-02-11T22:10:19.076Z,0.59
2023-02-11T22:12:47.961Z,0.82
2023-02-11T22:15:16.866Z,0.76
2023-02-11T22:17:47.118Z,0.63
2023-02-11T22:20:16.940Z,0.53
2023-02-11T22:22:45.716Z,0.66
2023-02-11T22:25:14.727Z,0.81
2023-02-11T22:27:43.595Z,0.88
2023-02-11T22:30:14.655Z,0.86
2023-02-11T22:32:43.529Z,0.76
2023-02-11T22:35:13.863Z,0.51
2023-02-11T22:37:42.767Z,0.64
2023-02-11T22:40:12.641Z,0.76
2023-02-11T22:42:41.472Z,0.82
2023-02-11T22:45:10.801Z,0.68
2023-02-11T22:47:39.641Z,0.64
2023-02-11T22:50:09.307Z,0.72
2023-02-11T22:52:39.521Z,0.46
2023-02-11T22:55:08.840Z,0.63
2023-02-11T22:57:37.754Z,0.77
2023-02-11T23:00:09.836Z,0.77
2023-02-11T23:02:38.976Z,0.90
2023-02-11T23:05:08.575Z,1.06
2023-02-11T23:07:37.492Z,1.04
2023-02-11T23:10:09.106Z,0.91
2023-02-11T23:12:38.014Z,1.00
2023-02-11T23:15:07.241Z,0.89
2023-02-11T23:17:36.129Z,1.12
2023-02-11T23:20:05.527Z,0.95
2023-02-11T23:22:34.403Z,0.43
2023-02-11T23:25:03.886Z,0.52
2023-02-11T23:27:34.156Z,0.51
2023-02-11T23:30:04.687Z,0.47
2023-02-11T23:32:33.712Z,0.63
2023-02-11T23:35:02.571Z,0.62
2023-02-11T23:37:31.486Z,0.25
2023-02-11T23:40:00.322Z,-0.31
2023-02-11T23:42:29.614Z,-0.66
2023-02-11T23:44:59.879Z,-0.19
2023-02-11T23:47:28.727Z,0.11
2023-02-11T23:49:59.598Z,0.09
2023-02-11T23:52:28.698Z,0.09
2023-02-11T23:54:57.492Z,0.08
2023-02-11T23:57:26.435Z,0.10
2023-02-11T23:59:55.264Z,0.10
